03:03
Airports
Links
Donate
Help keep this website running!
PayPal
Bitcoin
METAR
YSCB 180230Z 30008KT CAVOK 32/02 Q1012 NOSIG
Current Weather Conditions at YSCB
VFR 02:30:00 18-02-18
Altimeter:29.88 hg
Temp:32.0°c 90°f
Dew point:2.0°c 36°f
Wind:8 knots, 9.2 mph, 4 m/s, from 300°
Visibility:6.21 statute miles
(CAVOK)
No significant weather changes expected within 2 hours.
Past METAR reports
VFR 02:00:00 18-02-18
Altimeter:29.91 hg
Temp:31.0°c 88°f
Dew point:2.0°c 36°f
Wind:10 knots, 11.5 mph, 5 m/s, from 300°
Visibility:6.21 statute miles
(CAVOK)
No significant weather changes expected within 2 hours.
YSCB 180200Z 30010KT 280V360 CAVOK 31/02 Q1013 NOSIG
VFR 01:30:00 18-02-18
Altimeter:29.91 hg
Temp:30.0°c 86°f
Dew point:3.0°c 37°f
Wind:13 knots, 15 mph, 7 m/s, from 320°
Visibility:6.21 statute miles
(CAVOK)
No significant weather changes expected within 2 hours.
YSCB 180130Z 32013KT CAVOK 30/03 Q1013 NOSIG
VFR 01:00:00 18-02-18
Automated station, no observer
Altimeter:29.91 hg
Temp:30.0°c 86°f
Dew point:5.0°c 41°f
Wind:11 knots, 12.7 mph, 6 m/s, from 310°
Visibility:6.21 statute miles
(CLR) Clear
YSCB 180100Z AUTO 31011KT 270V330 9999 // NCD 30/05 Q1013
VFR 00:30:00 18-02-18
Altimeter:29.94 hg
Temp:28.0°c 82°f
Dew point:9.0°c 48°f
Wind:6 knots, 6.9 mph, 3 m/s, from 270°
Visibility:6.21 statute miles
(CAVOK)
No significant weather changes expected within 2 hours.
YSCB 180030Z 27006KT 230V310 CAVOK 28/09 Q1014 NOSIG
VFR 00:00:00 18-02-18
Altimeter:29.94 hg
Temp:26.0°c 79°f
Dew point:11.0°c 52°f
Wind:5 knots, 5.8 mph, 3 m/s, from 260°
Visibility:6.21 statute miles
(CAVOK)
No significant weather changes expected within 2 hours.
YSCB 180000Z 26005KT CAVOK 26/11 Q1014 NOSIG
VFR 23:30:00 17-02-18
Altimeter:29.94 hg
Temp:25.0°c 77°f
Dew point:12.0°c 54°f
Wind:5 knots, 5.8 mph, 3 m/s, from 280°
Visibility:6.21 statute miles
(CAVOK)
No significant weather changes expected within 2 hours.
YSCB 172330Z 28005KT 240V310 CAVOK 25/12 Q1014 NOSIG
TAF
TAF AMD YSCB 172307Z 1800/1824 31010KT CAVOK FM180900 07012KT 9999 FEW025 FM181200 12008KT 9999 SCT020 BECMG 1814/1816 12008KT 9999 BKN016 FM182300 12012KT 9999 -SHRA BKN030
Forecast at YSCB
00:00 18-02-18 to 09:00 18-02-18
NSW
Wind:10 Knots from 310°
Visibility:6.21 statute miles
NSC
FM 09:00 18-02-18 to 12:00 18-02-18
Wind:12 Knots from 70°
Visibility:6.21 statute miles
2500FEW A few
FM 12:00 18-02-18 to 14:00 18-02-18
Wind:8 Knots from 120°
Visibility:6.21 statute miles
2000SCT Scattered
BECMG 14:00 18-02-18 to 23:00 18-02-18
Wind:8 Knots from 120°
Visibility:6.21 statute miles
1600BKN Broken
FM 23:00 18-02-18 to 00:00 19-02-18
-SHRA
Wind:12 Knots from 120°
Visibility:6.21 statute miles
3000BKN Broken